createdAt,value
2023-03-02T00:03:53.125Z,17.80
2023-03-02T00:08:52.898Z,15.20
2023-03-02T00:14:05.536Z,17.60
2023-03-02T00:18:58.387Z,17.40
2023-03-02T00:24:17.038Z,21.60
2023-03-02T00:28:56.108Z,21.40
2023-03-02T00:33:53.276Z,17.80
2023-03-02T00:38:53.796Z,17.50
2023-03-02T00:43:53.740Z,19.20
2023-03-02T00:48:54.489Z,18.50
2023-03-02T00:54:18.151Z,32.20
2023-03-02T02:11:28.079Z,16.70
2023-03-02T02:17:43.315Z,22.50
2023-03-02T02:29:07.688Z,17.50
2023-03-02T02:34:07.410Z,17.10
2023-03-02T02:39:08.076Z,17.50
2023-03-02T02:44:07.385Z,17.50
2023-03-02T02:49:07.858Z,19.60
2023-03-02T02:55:31.513Z,18.80
2023-03-02T03:00:31.190Z,18.20
2023-03-02T03:05:32.283Z,17.80
2023-03-02T03:10:34.281Z,16.90
2023-03-02T03:15:30.708Z,16.30
2023-03-02T03:20:30.707Z,16.30
2023-03-02T03:25:30.643Z,19.30
2023-03-02T03:30:30.605Z,18.80
2023-03-02T03:35:30.500Z,17.30
2023-03-02T03:40:30.503Z,13.50
2023-03-02T03:45:30.567Z,12.50
2023-03-02T03:50:30.296Z,18.30
2023-03-02T03:55:30.225Z,15.50
2023-03-02T04:00:30.193Z,21.10
2023-03-02T04:05:31.700Z,19.40
2023-03-02T04:10:30.059Z,15.40
2023-03-02T04:15:30.123Z,14.20
2023-03-02T04:20:29.983Z,15.30
2023-03-02T04:25:31.026Z,16.60
2023-03-02T04:30:29.861Z,19.50
2023-03-02T04:35:29.800Z,18.10
2023-03-02T04:40:29.779Z,18.00
2023-03-02T04:45:29.683Z,18.90
2023-03-02T04:50:29.840Z,18.80
2023-03-02T04:55:29.597Z,20.40
2023-03-02T05:00:29.668Z,15.00
2023-03-02T05:05:29.567Z,17.40
2023-03-02T05:10:30.606Z,14.60
2023-03-02T05:15:29.495Z,18.80
2023-03-02T05:20:29.369Z,21.70
2023-03-02T05:25:29.301Z,16.50
2023-03-02T05:30:29.256Z,15.70
2023-03-02T05:35:30.336Z,15.80
2023-03-02T05:40:29.254Z,20.30
2023-03-02T05:45:29.101Z,16.90
2023-03-02T05:50:29.021Z,20.30
2023-03-02T05:55:28.989Z,18.80
2023-03-02T06:00:28.957Z,20.00
2023-03-02T06:05:28.882Z,18.20
2023-03-02T06:10:30.970Z,22.40
2023-03-02T06:15:29.817Z,18.50
2023-03-02T06:20:28.667Z,18.40
2023-03-02T06:25:28.652Z,18.30
2023-03-02T06:30:28.681Z,19.10
2023-03-02T06:35:28.653Z,16.50
2023-03-02T06:40:28.500Z,21.50
2023-03-02T06:45:28.430Z,21.10
2023-03-02T06:50:28.443Z,25.30
2023-03-02T06:55:28.368Z,22.20
2023-03-02T07:00:28.467Z,18.70
2023-03-02T07:05:29.298Z,17.20
2023-03-02T07:10:28.197Z,19.60
2023-03-02T07:15:28.138Z,21.40
2023-03-02T07:20:28.064Z,22.50
2023-03-02T07:25:27.987Z,16.80
2023-03-02T07:30:27.979Z,18.80
2023-03-02T07:35:28.069Z,17.10
2023-03-02T07:40:27.903Z,15.90
2023-03-02T07:45:27.799Z,16.50
2023-03-02T07:50:28.845Z,15.40
2023-03-02T07:55:27.658Z,13.40
2023-03-02T08:00:27.611Z,19.50
2023-03-02T08:05:27.629Z,15.00
2023-03-02T08:10:27.556Z,13.70
2023-03-02T08:15:27.483Z,15.90
2023-03-02T08:20:27.410Z,19.10
2023-03-02T08:25:27.393Z,17.20
2023-03-02T08:30:27.345Z,14.50
2023-03-02T08:35:27.310Z,14.20
2023-03-02T08:40:28.224Z,20.10
2023-03-02T08:45:27.171Z,22.50
2023-03-02T08:50:27.275Z,16.70
2023-03-02T08:55:27.114Z,14.40
2023-03-02T09:00:26.996Z,18.80
2023-03-02T09:05:27.055Z,19.90
2023-03-02T09:10:27.026Z,18.90
2023-03-02T09:15:26.832Z,15.10
2023-03-02T09:20:26.858Z,15.70
2023-03-02T09:25:26.722Z,16.70
2023-03-02T09:30:26.658Z,18.40
2023-03-02T09:35:26.608Z,14.60
2023-03-02T09:40:26.593Z,13.10
2023-03-02T09:45:26.470Z,17.20
2023-03-02T09:50:26.524Z,18.40
2023-03-02T09:55:26.387Z,13.40
2023-03-02T10:00:26.369Z,15.20
2023-03-02T10:05:26.291Z,12.90
2023-03-02T10:10:26.233Z,12.40
2023-03-02T10:15:26.130Z,12.90
2023-03-02T10:20:26.116Z,14.50
2023-03-02T10:25:26.067Z,17.20
2023-03-02T10:30:25.959Z,12.70
2023-03-02T10:35:25.988Z,13.20
2023-03-02T10:40:25.850Z,13.10
2023-03-02T10:45:25.831Z,14.10
2023-03-02T10:50:25.771Z,13.00
2023-03-02T10:55:25.751Z,12.90
2023-03-02T11:00:25.760Z,15.00
2023-03-02T11:05:25.632Z,16.80
2023-03-02T11:10:25.615Z,13.50
2023-03-02T11:15:25.601Z,12.20
2023-03-02T11:20:25.441Z,15.10
2023-03-02T11:25:25.371Z,13.00
2023-03-02T11:30:25.338Z,12.20
2023-03-02T11:35:25.381Z,11.60
2023-03-02T11:40:25.277Z,18.30
2023-03-02T11:45:25.158Z,12.20
2023-03-02T11:50:25.096Z,15.00
2023-03-02T11:55:25.037Z,13.90
2023-03-02T12:00:24.997Z,10.60
2023-03-02T12:05:25.031Z,12.10
2023-03-02T12:10:24.900Z,13.60
2023-03-02T12:15:24.828Z,12.60
2023-03-02T12:20:24.889Z,11.00
2023-03-02T12:25:28.207Z,12.30
2023-03-02T12:30:24.820Z,11.90
2023-03-02T12:35:24.652Z,10.00
2023-03-02T12:40:24.541Z,12.50
2023-03-02T12:45:24.520Z,13.20
2023-03-02T12:50:24.467Z,11.70
2023-03-02T12:55:25.478Z,10.60
2023-03-02T13:00:24.409Z,11.30
2023-03-02T13:05:24.349Z,15.00
2023-03-02T13:10:24.298Z,12.80
2023-03-02T13:15:24.169Z,11.80
2023-03-02T13:20:24.218Z,8.50
2023-03-02T13:25:24.036Z,11.10
2023-03-02T13:30:24.077Z,13.10
2023-03-02T13:35:26.313Z,9.10
2023-03-02T13:40:23.912Z,9.60
2023-03-02T13:45:24.874Z,7.50
2023-03-02T13:50:23.874Z,9.60
2023-03-02T13:55:23.793Z,8.90
2023-03-02T14:00:23.668Z,10.10
2023-03-02T14:05:23.777Z,12.40
2023-03-02T14:10:23.631Z,12.70
2023-03-02T14:15:23.536Z,8.40
2023-03-02T14:20:23.531Z,9.90
2023-03-02T14:25:23.465Z,8.10
2023-03-02T14:30:23.286Z,8.90
2023-03-02T14:35:23.277Z,9.10
2023-03-02T14:40:23.193Z,9.10
2023-03-02T14:45:23.231Z,8.30
2023-03-02T14:50:23.055Z,8.40
2023-03-02T14:55:23.010Z,7.00
2023-03-02T15:00:23.046Z,9.90
2023-03-02T15:05:23.002Z,8.30
2023-03-02T15:10:22.917Z,9.70
2023-03-02T15:15:22.804Z,8.80
2023-03-02T15:20:22.779Z,11.20
2023-03-02T15:25:22.774Z,13.00
2023-03-02T15:30:23.704Z,9.40
2023-03-02T15:35:22.588Z,8.80
2023-03-02T15:40:22.553Z,7.70
2023-03-02T15:45:22.534Z,9.50
2023-03-02T15:50:22.497Z,10.90
2023-03-02T15:55:22.372Z,16.80
2023-03-02T16:00:22.303Z,10.50
2023-03-02T16:05:22.421Z,9.30
2023-03-02T16:10:22.271Z,10.00
2023-03-02T16:15:22.341Z,8.70
2023-03-02T16:20:22.182Z,10.50
2023-03-02T16:25:22.063Z,12.10
2023-03-02T16:30:23.407Z,11.60
2023-03-02T16:35:21.976Z,11.90
2023-03-02T16:40:21.935Z,18.10
2023-03-02T16:45:21.899Z,23.10
2023-03-02T16:50:22.106Z,19.00
2023-03-02T16:55:27.330Z,16.60
2023-03-02T17:00:30.654Z,19.20
2023-03-02T17:05:22.609Z,18.50
2023-03-02T17:10:21.559Z,22.00
2023-03-02T17:15:21.475Z,19.10
2023-03-02T17:20:23.511Z,18.20
2023-03-02T17:25:22.451Z,21.30
2023-03-02T17:30:25.737Z,19.50
2023-03-02T17:35:21.253Z,23.00
2023-03-02T17:40:31.064Z,24.40
2023-03-02T17:45:21.177Z,58.90
2023-03-02T17:50:21.139Z,27.00
2023-03-02T17:55:21.052Z,25.80
2023-03-02T18:00:25.359Z,26.30
2023-03-02T18:05:21.993Z,27.10
2023-03-02T18:10:22.000Z,24.60
2023-03-02T18:15:20.929Z,28.40
2023-03-02T18:20:20.859Z,31.10
2023-03-02T18:25:20.738Z,26.40
2023-03-02T18:30:20.717Z,30.50
2023-03-02T18:35:20.607Z,28.50
2023-03-02T18:40:20.764Z,31.90
2023-03-02T18:45:20.567Z,31.10
2023-03-02T18:50:20.574Z,31.40
2023-03-02T18:55:20.436Z,30.00
2023-03-02T19:00:21.460Z,30.10
2023-03-02T19:05:20.276Z,34.30
2023-03-02T19:10:21.539Z,37.30
2023-03-02T19:15:20.210Z,35.40
2023-03-02T19:20:20.147Z,55.30
2023-03-02T19:25:21.140Z,32.00
2023-03-02T19:30:20.157Z,30.50
2023-03-02T19:35:20.068Z,35.90
2023-03-02T19:40:21.020Z,46.30
2023-03-02T19:45:19.875Z,37.60
2023-03-02T19:50:19.836Z,37.00
2023-03-02T19:55:19.737Z,36.50
2023-03-02T20:00:19.692Z,34.90
2023-03-02T20:05:19.619Z,41.90
2023-03-02T20:10:19.601Z,36.40
2023-03-02T20:15:19.526Z,44.00
2023-03-02T20:20:19.448Z,42.20
2023-03-02T20:25:19.435Z,41.90
2023-03-02T20:30:19.451Z,46.40
2023-03-02T20:35:21.386Z,48.00
2023-03-02T20:40:19.583Z,50.20
2023-03-02T20:45:20.261Z,48.60
2023-03-02T20:50:19.231Z,57.70
2023-03-02T20:55:21.136Z,52.50
2023-03-02T21:00:19.112Z,52.90
2023-03-02T21:05:19.005Z,56.80
2023-03-02T21:10:18.917Z,60.30
2023-03-02T21:15:18.877Z,57.40
2023-03-02T21:20:18.831Z,59.60
2023-03-02T21:25:18.762Z,66.50
2023-03-02T21:30:18.707Z,63.20
2023-03-02T21:35:18.642Z,61.70
2023-03-02T21:40:18.624Z,63.00
2023-03-02T21:45:18.606Z,67.60
2023-03-02T21:50:18.637Z,73.00
2023-03-02T21:55:18.442Z,67.60
2023-03-02T22:00:18.404Z,74.80
2023-03-02T22:05:18.352Z,85.30
2023-03-02T22:10:18.267Z,79.90
2023-03-02T22:15:18.258Z,80.70
2023-03-02T22:20:18.201Z,81.10
2023-03-02T22:25:18.195Z,81.90
2023-03-02T22:30:18.256Z,78.30
2023-03-02T22:35:18.113Z,76.30
2023-03-02T22:40:17.951Z,85.60
2023-03-02T22:45:17.892Z,83.90
2023-03-02T22:50:17.893Z,98.40
2023-03-02T22:55:17.848Z,86.70
2023-03-02T23:00:17.719Z,86.50
2023-03-02T23:05:17.682Z,92.20
2023-03-02T23:10:17.686Z,93.70
2023-03-02T23:15:17.577Z,97.00
2023-03-02T23:20:17.508Z,88.50
2023-03-02T23:25:17.457Z,89.20
2023-03-02T23:30:17.535Z,94.30
2023-03-02T23:35:17.501Z,91.20
2023-03-02T23:40:17.289Z,101.70
2023-03-02T23:45:17.261Z,101.60
2023-03-02T23:50:17.210Z,110.40
2023-03-02T23:55:17.159Z,105.30
